Terminal Aerodrome Forecast
Issued by NWS North Platte, NE

Home | Current Version | Previous Version | Graphics & Text | Print | Product List | Glossary On
Versions: 1 2 3 4 5 6 7 8 9 10 11 12 13 14 15 16 17 18 19 20
000
FTUS43 KLBF 041700
TAFVTN
TAF
KVTN 041721Z 0418/0518 08014G21KT P6SM OVC090
     FM050300 10011KT P6SM OVC050 PROB30 0509/0515 5SM -RA OVC015
     FM051500 10008KT 5SM BR OVC010=

USA.gov is the U.S. government's official web portal to all federal, state and local government web resources and services.